Aeroporto :
LOGIN :

Iscrizione | Disclaimer

   EN    FR    IT 

 










Sommario :    VFR   VFR Marginale   IFR   IFR Intensivo   IFR Molto Intensivo
Visibilità : 
Base nubi : 
>= 8 km
>= 3000ft
5 / 8 km
1000 / 3000 ft
1500m / 5 km
500 / 1000 ft
800 / 1500m
200 / 500 ft
< 800m
< 200 ft
Simboli :   Temporali  Nebbia  Neve Forte  Precipitazioni Forti  Vento > 20 kt
SIGMETs :   Varie  Temporali  Ghiacco  Turbolenza  Onda orograficha  Ceneri Vulcaniche






- Altitudine del aeroporto : 286 ft
- Codice IATA : TRF


ENTO - Sandefjord , Torp

ULTIMO METAR :
  • 280020Z AUTO 35007KT 9999 NCD 08/M00 Q1030

METARs OBSOLETI :
  • 272350Z AUTO 34010KT 9999 NCD 08/00 Q1031
  • 272320Z AUTO 35009KT 9999 NCD 09/01 Q1030
  • 272250Z AUTO 35006KT 9999 NCD 09/01 Q1030
  • 272220Z AUTO 34007KT 9999 NCD 10/01 Q1030
  • 272150Z AUTO 34010KT 9999 NCD 10/01 Q1030

TAF TAF ENTO
Valido dal 28 a 00 ore il 29 a 00 ore UTC


2800/2824 34008KT CAVOK
BECMG 2811/2813 20010KT
BECMG 2818/2821 30008KT



MetMap, La meteo Aeronautica in un colpo d'occhio ! - Copyright ORBIFLY Dicembre 2007 - Disclaimer

ORBIFLY MET'MAP TEAM :

Programmazione e sviluppo : Alexandra Zaïnal
Concezione : Baudouin d'Aumeries
Aiuto per la programmazione : Marc-Olivier Méhu
Supporto tecnico e logistico : Manuel Goepfert
Aiuto per la traduzione : Arnaldo La Scala

Contatto : metmap@orbifly.com




FONTI E CREDITI :

   NOAA